createdAt,value
2022-11-17T00:02:23.288Z,17.80
2022-11-17T00:04:50.205Z,17.80
2022-11-17T00:07:17.238Z,17.90
2022-11-17T00:09:44.089Z,17.90
2022-11-17T00:12:32.845Z,18.00
2022-11-17T00:15:00.213Z,18.10
2022-11-17T00:17:27.077Z,18.10
2022-11-17T00:20:12.579Z,18.20
2022-11-17T00:22:39.433Z,18.10
2022-11-17T00:25:06.415Z,18.10
2022-11-17T00:27:33.295Z,18.10
2022-11-17T00:30:00.176Z,18.00
2022-11-17T00:32:46.056Z,18.00
2022-11-17T00:35:12.914Z,18.10
2022-11-17T00:38:03.569Z,18.10
2022-11-17T00:40:30.637Z,18.10
2022-11-17T00:42:57.486Z,18.20
2022-11-17T00:45:24.351Z,18.10
2022-11-17T00:47:51.153Z,18.10
2022-11-17T00:50:18.053Z,18.20
2022-11-17T00:52:44.856Z,18.20
2022-11-17T00:55:11.720Z,18.10
2022-11-17T00:57:39.058Z,18.00
2022-11-17T01:00:06.595Z,18.10
2022-11-17T01:02:33.481Z,18.20
2022-11-17T01:05:00.312Z,18.20
2022-11-17T01:07:27.263Z,18.10
2022-11-17T01:09:54.221Z,18.10
2022-11-17T01:12:21.123Z,18.00
2022-11-17T01:14:48.089Z,18.10
2022-11-17T01:17:14.930Z,18.20
2022-11-17T01:19:41.788Z,18.10
2022-11-17T01:22:08.614Z,18.10
2022-11-17T01:24:35.436Z,18.10
2022-11-17T01:27:02.295Z,18.10
2022-11-17T01:29:29.199Z,18.10
2022-11-17T01:31:56.004Z,18.20
2022-11-17T01:34:22.891Z,18.20
2022-11-17T01:37:08.164Z,18.10
2022-11-17T01:39:35.029Z,18.10
2022-11-17T01:42:14.977Z,18.10
2022-11-17T01:44:59.919Z,18.00
2022-11-17T01:47:41.372Z,18.10
2022-11-17T01:50:11.732Z,18.10
2022-11-17T01:52:41.081Z,18.10
2022-11-17T01:55:10.870Z,18.00
2022-11-17T01:57:46.837Z,18.00
2022-11-17T02:00:14.361Z,18.10
2022-11-17T02:02:43.473Z,18.00
2022-11-17T02:05:17.286Z,18.00
2022-11-17T02:07:46.241Z,18.10
2022-11-17T02:10:13.109Z,18.20
2022-11-17T02:12:40.885Z,18.20
2022-11-17T02:15:08.283Z,18.20
2022-11-17T02:17:41.037Z,18.10
2022-11-17T02:20:10.373Z,18.10
2022-11-17T02:23:11.198Z,18.20
2022-11-17T02:26:08.697Z,18.10
2022-11-17T02:28:42.359Z,18.10
2022-11-17T02:31:33.331Z,18.00
2022-11-17T02:34:03.158Z,18.10
2022-11-17T02:37:00.594Z,18.00
2022-11-17T02:39:52.037Z,18.00
2022-11-17T02:42:54.505Z,18.10
2022-11-17T02:45:29.137Z,18.10
2022-11-17T02:47:59.804Z,18.10
2022-11-17T02:50:28.859Z,18.10
2022-11-17T02:52:56.742Z,18.10
2022-11-17T02:55:23.658Z,18.00
2022-11-17T02:57:50.511Z,18.10
2022-11-17T03:00:19.227Z,18.10
2022-11-17T03:03:13.719Z,18.10
2022-11-17T03:06:03.875Z,18.20
2022-11-17T03:08:52.364Z,18.30
2022-11-17T03:11:28.595Z,18.30
2022-11-17T03:14:14.142Z,18.20
2022-11-17T03:17:01.270Z,18.10
2022-11-17T03:20:15.089Z,18.10
2022-11-17T03:22:59.678Z,18.30
2022-11-17T03:25:27.995Z,18.30
2022-11-17T03:27:58.945Z,18.20
2022-11-17T03:30:27.201Z,18.20
2022-11-17T03:32:59.728Z,18.30
2022-11-17T03:35:31.656Z,18.30
2022-11-17T03:38:04.123Z,18.20
2022-11-17T03:40:34.839Z,18.20
2022-11-17T03:43:06.419Z,18.20
2022-11-17T03:45:40.486Z,18.30
2022-11-17T03:48:35.707Z,18.20
2022-11-17T03:51:10.900Z,18.30
2022-11-17T03:53:38.546Z,18.20
2022-11-17T03:56:23.439Z,18.30
2022-11-17T03:58:54.706Z,18.30
2022-11-17T04:01:22.700Z,18.40
2022-11-17T04:03:49.614Z,18.30
2022-11-17T04:06:16.496Z,18.20
2022-11-17T04:08:43.595Z,18.40
2022-11-17T04:11:29.127Z,18.40
2022-11-17T04:14:14.530Z,18.40
2022-11-17T04:16:42.045Z,18.50
2022-11-17T04:19:08.971Z,18.30
2022-11-17T04:21:35.861Z,18.40
2022-11-17T04:24:02.867Z,18.30
2022-11-17T04:26:48.119Z,18.20
2022-11-17T04:29:15.036Z,18.10
2022-11-17T04:31:41.839Z,18.30
2022-11-17T04:34:08.762Z,18.30
2022-11-17T04:36:43.747Z,18.10
2022-11-17T04:39:13.237Z,18.20
2022-11-17T04:42:03.876Z,18.30
2022-11-17T04:44:32.557Z,18.10
2022-11-17T04:46:59.485Z,18.10
2022-11-17T04:49:26.484Z,18.20
2022-11-17T04:51:53.783Z,18.30
2022-11-17T04:54:24.640Z,18.30
2022-11-17T04:56:54.400Z,18.30
2022-11-17T04:59:21.903Z,18.20
2022-11-17T05:01:48.907Z,18.40
2022-11-17T05:04:37.785Z,18.40
2022-11-17T05:07:04.821Z,18.30
2022-11-17T05:09:32.174Z,18.20
2022-11-17T05:12:31.249Z,18.20
2022-11-17T05:14:58.126Z,18.30
2022-11-17T05:17:24.950Z,18.20
2022-11-17T05:19:51.828Z,18.30
2022-11-17T05:22:41.999Z,18.30
2022-11-17T05:25:09.770Z,18.30
2022-11-17T05:27:36.797Z,18.20
2022-11-17T05:30:06.204Z,18.20
2022-11-17T05:32:33.048Z,18.30
2022-11-17T05:34:59.984Z,18.20
2022-11-17T05:37:26.766Z,18.20
2022-11-17T05:39:53.696Z,18.20
2022-11-17T05:42:20.758Z,18.10
2022-11-17T05:44:48.631Z,18.10
2022-11-17T05:47:16.498Z,18.00
2022-11-17T05:49:43.437Z,18.00
2022-11-17T05:52:10.363Z,17.90
2022-11-17T05:54:37.204Z,17.90
2022-11-17T05:57:10.504Z,17.90
2022-11-17T05:59:45.489Z,18.00
2022-11-17T06:02:23.813Z,18.20
2022-11-17T06:04:51.718Z,18.30
2022-11-17T06:07:19.339Z,18.20
2022-11-17T06:09:46.571Z,18.30
2022-11-17T06:12:15.225Z,18.40
2022-11-17T06:14:42.301Z,18.20
2022-11-17T06:17:22.690Z,17.80
2022-11-17T06:19:55.791Z,17.60
2022-11-17T06:22:24.390Z,17.40
2022-11-17T06:24:51.209Z,17.30
2022-11-17T06:27:18.234Z,17.30
2022-11-17T06:29:46.885Z,17.30
2022-11-17T06:32:15.713Z,17.20
2022-11-17T06:34:48.038Z,17.10
2022-11-17T06:37:17.493Z,17.10
2022-11-17T06:39:44.301Z,17.10
2022-11-17T06:42:11.233Z,17.10
2022-11-17T06:44:38.078Z,17.10
2022-11-17T06:47:05.081Z,17.10
2022-11-17T06:49:32.045Z,17.00
2022-11-17T06:51:58.855Z,17.00
2022-11-17T06:54:25.697Z,17.00
2022-11-17T06:56:52.739Z,17.00
2022-11-17T06:59:19.571Z,17.00
2022-11-17T07:01:46.382Z,17.00
2022-11-17T07:04:13.256Z,17.50
2022-11-17T07:06:40.075Z,17.60
2022-11-17T07:09:07.053Z,17.60
2022-11-17T07:11:37.279Z,17.80
2022-11-17T07:14:04.230Z,18.00
2022-11-17T07:16:32.525Z,18.00
2022-11-17T07:18:59.490Z,17.90
2022-11-17T07:21:26.653Z,17.90
2022-11-17T07:23:53.535Z,18.00
2022-11-17T07:26:20.366Z,18.10
2022-11-17T07:28:47.195Z,18.20
2022-11-17T07:31:14.306Z,18.20
2022-11-17T07:33:41.195Z,18.20
2022-11-17T07:36:10.465Z,18.20
2022-11-17T07:38:39.542Z,18.40
2022-11-17T07:41:07.986Z,18.40
2022-11-17T07:43:35.796Z,18.50
2022-11-17T07:46:13.930Z,18.30
2022-11-17T07:48:42.497Z,18.40
2022-11-17T07:51:09.827Z,18.30
2022-11-17T07:53:36.855Z,18.40
2022-11-17T07:56:09.362Z,18.50
2022-11-17T07:58:37.616Z,18.50
2022-11-17T08:01:18.091Z,18.60
2022-11-17T08:03:45.005Z,18.50
2022-11-17T08:06:12.177Z,18.60
2022-11-17T08:08:39.840Z,18.50
2022-11-17T08:11:12.196Z,18.50
2022-11-17T08:13:40.355Z,18.50
2022-11-17T08:16:08.260Z,18.50
2022-11-17T08:18:36.802Z,18.50
2022-11-17T08:21:09.869Z,18.60
2022-11-17T08:23:37.987Z,18.60
2022-11-17T08:26:06.374Z,18.50
2022-11-17T08:28:34.425Z,18.60
2022-11-17T08:31:05.758Z,18.60
2022-11-17T08:33:32.743Z,18.50
2022-11-17T08:36:01.262Z,18.60
2022-11-17T08:38:29.299Z,18.60
2022-11-17T08:41:08.493Z,18.70
2022-11-17T08:43:35.910Z,18.80
2022-11-17T08:46:03.596Z,18.70
2022-11-17T08:48:31.692Z,18.70
2022-11-17T08:50:59.018Z,18.70
2022-11-17T08:53:25.909Z,18.50
2022-11-17T08:55:52.942Z,18.60
2022-11-17T08:58:19.896Z,18.50
2022-11-17T09:00:47.499Z,18.50
2022-11-17T09:03:14.969Z,18.40
2022-11-17T09:05:49.166Z,18.40
2022-11-17T09:08:44.377Z,18.50
2022-11-17T09:11:11.819Z,18.40
2022-11-17T09:13:39.319Z,18.50
2022-11-17T09:16:09.070Z,18.40
2022-11-17T09:18:38.412Z,18.40
2022-11-17T09:21:10.626Z,18.40
2022-11-17T09:23:38.093Z,18.40
2022-11-17T09:26:11.649Z,18.50
2022-11-17T09:28:39.308Z,18.40
2022-11-17T09:31:08.538Z,18.40
2022-11-17T09:33:35.897Z,18.40
2022-11-17T09:36:03.677Z,18.40
2022-11-17T09:38:30.765Z,18.50
2022-11-17T09:40:58.541Z,18.50
2022-11-17T09:43:30.178Z,18.50
2022-11-17T09:46:07.741Z,18.50
2022-11-17T09:49:04.312Z,18.60
2022-11-17T09:51:34.716Z,18.60
2022-11-17T09:54:11.416Z,18.40
2022-11-17T09:56:40.409Z,18.50
2022-11-17T09:59:12.865Z,18.50
2022-11-17T10:01:39.806Z,18.50
2022-11-17T10:04:16.746Z,18.50
2022-11-17T10:06:46.456Z,18.50
2022-11-17T10:09:29.431Z,18.50
2022-11-17T10:12:07.914Z,18.50
2022-11-17T10:14:36.593Z,18.40
2022-11-17T10:17:03.445Z,18.30
2022-11-17T10:19:38.275Z,18.30
2022-11-17T10:22:05.402Z,18.40
2022-11-17T10:24:38.247Z,18.40
2022-11-17T10:27:35.645Z,18.50
2022-11-17T10:30:08.240Z,18.50
2022-11-17T10:32:38.233Z,18.60
2022-11-17T10:35:32.093Z,18.60
2022-11-17T10:38:19.075Z,18.50
2022-11-17T10:40:51.875Z,18.50
2022-11-17T10:43:32.002Z,18.50
2022-11-17T10:46:04.033Z,18.60
2022-11-17T10:48:38.693Z,18.60
2022-11-17T10:51:19.552Z,18.50
2022-11-17T10:54:05.133Z,18.40
2022-11-17T10:56:41.457Z,18.40
2022-11-17T10:59:08.257Z,18.30
2022-11-17T11:01:37.889Z,18.40
2022-11-17T11:04:44.543Z,18.40
2022-11-17T11:07:13.148Z,18.40
2022-11-17T11:09:49.817Z,18.50
2022-11-17T11:12:23.204Z,18.50
2022-11-17T11:14:56.088Z,18.50
2022-11-17T11:17:22.876Z,18.50
2022-11-17T11:19:52.845Z,18.60
2022-11-17T11:22:38.149Z,18.50
2022-11-17T11:25:28.966Z,18.60
2022-11-17T11:28:00.136Z,18.60
2022-11-17T11:30:27.329Z,18.60
2022-11-17T11:33:05.164Z,18.70
2022-11-17T11:36:01.305Z,18.60
2022-11-17T11:38:42.772Z,18.60
2022-11-17T11:41:26.862Z,18.50
2022-11-17T11:44:06.596Z,18.50
2022-11-17T11:47:10.545Z,18.70
2022-11-17T11:49:49.099Z,18.60
2022-11-17T11:52:32.666Z,18.50
2022-11-17T11:55:14.440Z,18.50
2022-11-17T11:57:53.934Z,18.50
2022-11-17T12:00:21.059Z,18.50
2022-11-17T12:02:48.054Z,18.50
2022-11-17T12:05:30.335Z,18.50
2022-11-17T12:08:12.093Z,18.60
2022-11-17T12:11:24.237Z,18.60
2022-11-17T12:13:54.374Z,18.70
2022-11-17T12:16:50.877Z,18.70
2022-11-17T12:19:53.888Z,18.80
2022-11-17T12:22:29.566Z,18.70
2022-11-17T12:25:03.708Z,18.60
2022-11-17T12:27:36.202Z,18.70
2022-11-17T12:30:06.097Z,18.50
2022-11-17T12:32:45.017Z,18.60
2022-11-17T12:35:28.657Z,18.60
2022-11-17T12:38:14.094Z,18.70
2022-11-17T12:40:46.730Z,18.70
2022-11-17T12:43:16.480Z,18.70
2022-11-17T12:45:58.569Z,18.60
2022-11-17T12:48:36.777Z,18.60
2022-11-17T12:51:06.027Z,18.50
2022-11-17T12:54:06.930Z,18.50
2022-11-17T12:56:33.809Z,18.60
2022-11-17T12:59:26.909Z,18.50
2022-11-17T13:02:11.349Z,18.50
2022-11-17T13:04:49.810Z,18.50
2022-11-17T13:07:22.818Z,18.50
2022-11-17T13:09:52.807Z,18.60
2022-11-17T13:12:25.735Z,18.60
2022-11-17T13:15:02.589Z,18.50
2022-11-17T13:17:33.655Z,18.50
2022-11-17T13:20:22.878Z,18.50
2022-11-17T13:23:00.934Z,18.60
2022-11-17T13:25:27.998Z,18.60
2022-11-17T13:27:59.789Z,18.60
2022-11-17T13:30:32.605Z,18.70
2022-11-17T13:33:02.707Z,18.70
2022-11-17T13:35:35.020Z,18.60
2022-11-17T13:38:06.412Z,18.60
2022-11-17T13:40:35.720Z,18.50
2022-11-17T13:43:04.561Z,18.60
2022-11-17T13:45:31.673Z,18.50
2022-11-17T13:47:59.480Z,18.50
2022-11-17T13:50:32.128Z,18.50
2022-11-17T13:53:12.790Z,18.50
2022-11-17T13:55:48.662Z,18.60
2022-11-17T13:58:40.034Z,18.70
2022-11-17T14:01:11.196Z,18.70
2022-11-17T14:03:40.492Z,18.60
2022-11-17T14:06:10.456Z,18.50
2022-11-17T14:08:39.164Z,18.50
2022-11-17T14:11:11.867Z,18.60
2022-11-17T14:13:42.571Z,18.70
2022-11-17T14:16:26.687Z,18.60
2022-11-17T14:18:59.469Z,18.60
2022-11-17T14:21:26.754Z,18.70
2022-11-17T14:24:11.833Z,18.70
2022-11-17T14:26:44.796Z,18.70
2022-11-17T14:29:13.501Z,18.60
2022-11-17T14:31:40.365Z,18.70
2022-11-17T14:34:07.265Z,18.70
2022-11-17T14:36:36.571Z,18.70
2022-11-17T14:39:04.591Z,18.70
2022-11-17T14:41:31.402Z,18.70
2022-11-17T14:43:58.259Z,18.70
2022-11-17T14:46:26.916Z,18.70
2022-11-17T14:48:55.403Z,18.70
2022-11-17T14:51:22.631Z,18.70
2022-11-17T14:53:49.497Z,18.50
2022-11-17T14:56:18.490Z,18.60
2022-11-17T14:58:46.806Z,18.50
2022-11-17T15:01:18.782Z,18.60
2022-11-17T15:03:46.187Z,18.60
2022-11-17T15:06:19.449Z,18.70
2022-11-17T15:08:48.549Z,18.70
2022-11-17T15:11:17.868Z,18.60
2022-11-17T15:13:44.823Z,18.60
2022-11-17T15:16:12.034Z,18.70
2022-11-17T15:18:39.040Z,18.70
2022-11-17T15:21:08.354Z,18.70
2022-11-17T15:23:38.521Z,18.60
2022-11-17T15:26:07.053Z,18.60
2022-11-17T15:28:34.357Z,18.60
2022-11-17T15:31:17.871Z,18.60
2022-11-17T15:33:46.538Z,18.70
2022-11-17T15:36:18.614Z,18.70
2022-11-17T15:38:46.073Z,18.70
2022-11-17T15:41:14.051Z,18.70
2022-11-17T15:43:42.937Z,18.80
2022-11-17T15:46:12.493Z,18.80
2022-11-17T15:48:43.030Z,18.80
2022-11-17T15:51:14.889Z,18.70
2022-11-17T15:53:43.179Z,18.70
2022-11-17T15:56:20.917Z,18.70
2022-11-17T15:58:53.904Z,18.60
2022-11-17T16:01:23.944Z,18.70
2022-11-17T16:03:51.668Z,18.70
2022-11-17T16:06:19.123Z,18.70
2022-11-17T16:08:46.235Z,18.70
2022-11-17T16:11:13.876Z,18.60
2022-11-17T16:13:40.968Z,18.60
2022-11-17T16:16:10.662Z,18.70
2022-11-17T16:18:38.654Z,18.70
2022-11-17T16:21:07.530Z,18.70
2022-11-17T16:23:53.186Z,18.70
2022-11-17T16:26:20.975Z,18.70
2022-11-17T16:28:48.066Z,18.70
2022-11-17T16:31:23.473Z,18.60
2022-11-17T16:33:52.571Z,18.70
2022-11-17T16:36:21.201Z,18.50
2022-11-17T16:39:01.936Z,18.50
2022-11-17T16:41:37.419Z,18.40
2022-11-17T16:44:11.829Z,18.40
2022-11-17T16:46:41.821Z,18.40
2022-11-17T16:49:12.650Z,18.50
2022-11-17T16:51:40.326Z,18.50
2022-11-17T16:54:11.185Z,18.50
2022-11-17T16:56:38.247Z,18.40
2022-11-17T16:59:05.251Z,18.50
2022-11-17T17:01:34.770Z,18.30
2022-11-17T17:04:07.120Z,18.30
2022-11-17T17:06:35.359Z,18.40
2022-11-17T17:09:05.420Z,18.30
2022-11-17T17:11:34.258Z,18.40
2022-11-17T17:14:04.684Z,18.40
2022-11-17T17:16:33.532Z,18.50
2022-11-17T17:19:02.465Z,18.50
2022-11-17T17:21:30.270Z,18.50
2022-11-17T17:23:57.573Z,18.50
2022-11-17T17:26:27.758Z,18.40
2022-11-17T17:28:56.743Z,18.40
2022-11-17T17:31:26.083Z,18.50
2022-11-17T17:33:54.917Z,18.40
2022-11-17T17:36:24.249Z,18.30
2022-11-17T17:38:55.834Z,18.30
2022-11-17T17:41:25.517Z,18.30
2022-11-17T17:43:58.603Z,18.30
2022-11-17T17:46:26.235Z,18.50
2022-11-17T17:48:53.350Z,18.50
2022-11-17T17:51:23.959Z,18.50
2022-11-17T17:53:51.873Z,18.50
2022-11-17T17:56:21.250Z,18.50
2022-11-17T17:58:50.836Z,18.50
2022-11-17T18:01:21.062Z,18.40
2022-11-17T18:03:50.264Z,18.50
2022-11-17T18:06:19.746Z,18.50
2022-11-17T18:08:47.783Z,18.40
2022-11-17T18:11:17.975Z,18.50
2022-11-17T18:13:54.525Z,18.40
2022-11-17T18:16:32.602Z,18.40
2022-11-17T18:19:01.959Z,18.50
2022-11-17T18:21:29.795Z,18.60
2022-11-17T18:24:01.187Z,18.60
2022-11-17T18:26:32.992Z,18.50
2022-11-17T18:29:08.596Z,18.40
2022-11-17T18:31:37.246Z,18.30
2022-11-17T18:34:07.150Z,18.40
2022-11-17T18:36:35.129Z,18.30
2022-11-17T18:39:02.157Z,18.00
2022-11-17T18:41:33.931Z,17.70
2022-11-17T18:44:01.468Z,17.50
2022-11-17T18:46:31.188Z,17.40
2022-11-17T18:48:59.162Z,17.30
2022-11-17T18:51:30.873Z,17.20
2022-11-17T18:54:00.105Z,17.50
2022-11-17T18:56:37.522Z,17.70
2022-11-17T18:59:11.198Z,17.90
2022-11-17T19:01:39.483Z,17.90
2022-11-17T19:04:06.671Z,17.90
2022-11-17T19:06:33.495Z,17.90
2022-11-17T19:09:00.830Z,17.90
2022-11-17T19:11:30.789Z,18.00
2022-11-17T19:13:59.862Z,18.00
2022-11-17T19:16:26.846Z,18.00
2022-11-17T19:18:55.458Z,18.00
2022-11-17T19:21:26.796Z,18.10
2022-11-17T19:23:55.345Z,18.00
2022-11-17T19:26:30.291Z,17.90
2022-11-17T19:28:59.335Z,18.10
2022-11-17T19:31:26.818Z,18.20
2022-11-17T19:33:55.075Z,18.10
2022-11-17T19:36:27.828Z,18.20
2022-11-17T19:38:56.813Z,18.10
2022-11-17T19:41:32.592Z,18.10
2022-11-17T19:44:01.832Z,18.10
2022-11-17T19:46:29.637Z,18.10
2022-11-17T19:48:57.173Z,18.00
2022-11-17T19:51:29.769Z,18.00
2022-11-17T19:54:00.669Z,17.90
2022-11-17T19:56:28.450Z,18.00
2022-11-17T19:58:55.817Z,17.90
2022-11-17T20:01:30.557Z,17.90
2022-11-17T20:04:00.045Z,17.90
2022-11-17T20:06:30.077Z,17.90
2022-11-17T20:08:59.947Z,18.00
2022-11-17T20:11:28.695Z,18.00
2022-11-17T20:13:56.122Z,18.00
2022-11-17T20:16:25.890Z,17.90
2022-11-17T20:18:57.074Z,17.80
2022-11-17T20:21:25.272Z,17.70
2022-11-17T20:23:52.425Z,17.80
2022-11-17T20:26:21.997Z,17.80
2022-11-17T20:28:49.161Z,17.80
2022-11-17T20:31:21.308Z,17.80
2022-11-17T20:33:48.986Z,17.70
2022-11-17T20:36:21.054Z,17.80
2022-11-17T20:39:01.883Z,17.80
2022-11-17T20:41:29.374Z,17.80
2022-11-17T20:43:58.401Z,17.70
2022-11-17T20:46:26.193Z,17.70
2022-11-17T20:48:53.338Z,17.70
2022-11-17T20:51:22.169Z,17.60
2022-11-17T20:53:49.470Z,17.60
2022-11-17T20:56:17.533Z,17.70
2022-11-17T20:58:44.711Z,17.70
2022-11-17T21:01:21.252Z,17.80
2022-11-17T21:03:49.268Z,17.90
2022-11-17T21:06:17.277Z,17.90
2022-11-17T21:08:45.356Z,17.80
2022-11-17T21:11:56.524Z,17.80
2022-11-17T21:14:27.032Z,17.80
2022-11-17T21:16:55.850Z,17.80
2022-11-17T21:19:23.413Z,17.80
2022-11-17T21:21:51.618Z,17.90
2022-11-17T21:24:18.495Z,17.90
2022-11-17T21:26:45.704Z,17.90
2022-11-17T21:29:12.662Z,17.90
2022-11-17T21:31:39.467Z,17.80
2022-11-17T21:34:07.528Z,17.80
2022-11-17T21:36:35.857Z,17.80
2022-11-17T21:39:03.475Z,17.80
2022-11-17T21:41:34.629Z,17.80
2022-11-17T21:44:02.671Z,17.80
2022-11-17T21:46:31.592Z,17.80
2022-11-17T21:48:59.795Z,17.70
2022-11-17T21:51:29.983Z,17.70
2022-11-17T21:53:59.202Z,17.70
2022-11-17T21:56:27.449Z,17.70
2022-11-17T21:59:05.183Z,17.80
2022-11-17T22:01:33.502Z,17.80
2022-11-17T22:04:00.505Z,17.80
2022-11-17T22:06:27.934Z,17.80
2022-11-17T22:08:56.022Z,17.80
2022-11-17T22:11:38.500Z,17.80
2022-11-17T22:14:10.057Z,17.80
2022-11-17T22:16:47.592Z,17.80
2022-11-17T22:19:16.205Z,17.70
2022-11-17T22:21:44.149Z,17.60
2022-11-17T22:24:12.329Z,17.60
2022-11-17T22:26:41.183Z,17.60
2022-11-17T22:29:12.909Z,17.70
2022-11-17T22:31:39.793Z,17.70
2022-11-17T22:34:06.665Z,17.60
2022-11-17T22:36:33.748Z,17.70
2022-11-17T22:39:00.704Z,17.70
2022-11-17T22:41:27.577Z,17.70
2022-11-17T22:43:56.284Z,17.70
2022-11-17T22:46:26.413Z,17.60
2022-11-17T22:48:53.731Z,17.60
2022-11-17T22:51:39.564Z,17.60
2022-11-17T22:54:07.997Z,17.70
2022-11-17T22:56:34.986Z,17.60
2022-11-17T22:59:01.938Z,17.60
2022-11-17T23:01:29.013Z,17.60
2022-11-17T23:03:55.889Z,17.60
2022-11-17T23:06:24.200Z,17.60
2022-11-17T23:08:51.107Z,17.60
2022-11-17T23:14:08.164Z,17.60
2022-11-17T23:16:35.866Z,17.50
2022-11-17T23:19:03.547Z,17.50
2022-11-17T23:21:30.383Z,17.50
2022-11-17T23:23:57.324Z,17.70
2022-11-17T23:26:24.209Z,17.60
2022-11-17T23:28:51.204Z,17.60
2022-11-17T23:31:18.451Z,17.50
2022-11-17T23:33:47.493Z,17.60
2022-11-17T23:36:19.705Z,17.60
2022-11-17T23:38:47.347Z,17.60
2022-11-17T23:41:15.960Z,17.70
2022-11-17T23:43:43.132Z,17.70
2022-11-17T23:46:13.137Z,17.60
2022-11-17T23:48:41.050Z,17.50
2022-11-17T23:51:16.420Z,17.50
2022-11-17T23:53:43.604Z,17.50
2022-11-17T23:56:10.918Z,17.60
2022-11-17T23:58:38.168Z,17.50
